ANZ644 NZQN-NZCH
Flight info
| Callsign | ANZ644 |
|---|---|
| Flight time | 0h 35m |
| Altitude | 23000 |
| Route | QN Q787 TIMJO Y153 DOPKI |
| Aircraft | A320/M-SDE3FGHIRWY/LB1 |
Departure
| Time | 2026-04-28 21:40 |
|---|---|
| Airport | Queenstown Airport (NZQN) |
Arrival
| Time | 2026-04-28 22:16 |
|---|---|
| Airport | Christchurch International Airport (NZCH) |
| Time | Latitude | Longitude | Altitude | Speed | Heading |
|---|---|---|---|---|---|
| 2026-04-28 21:02 | -45.02161 | 168.74102 | 1164 ft | 0 kts | 251° |
| 2026-04-28 21:34 | -45.02156 | 168.74125 | 1161 ft | 4 kts | 260° |
| 2026-04-28 21:34 | -45.02156 | 168.74161 | 1161 ft | 4 kts | 292° |
| 2026-04-28 21:34 | -45.02168 | 168.74183 | 1162 ft | 1 kts | 341° |
| 2026-04-28 21:34 | -45.02169 | 168.74183 | 1162 ft | 0 kts | 341° |
| 2026-04-28 21:36 | -45.02166 | 168.74182 | 1162 ft | 2 kts | 341° |
| 2026-04-28 21:36 | -45.02125 | 168.74153 | 1164 ft | 11 kts | 316° |
| 2026-04-28 21:37 | -45.02058 | 168.74057 | 1163 ft | 15 kts | 350° |
| 2026-04-28 21:37 | -45.01953 | 168.74106 | 1167 ft | 19 kts | 8° |
| 2026-04-28 21:37 | -45.01945 | 168.73942 | 1167 ft | 24 kts | 257° |
| 2026-04-28 21:37 | -45.01985 | 168.73688 | 1164 ft | 25 kts | 258° |
| 2026-04-28 21:38 | -45.02021 | 168.73522 | 1165 ft | 2 kts | 275° |
| 2026-04-28 21:38 | -45.02011 | 168.73524 | 1163 ft | 4 kts | 26° |
| 2026-04-28 21:38 | -45.02002 | 168.73556 | 1167 ft | 3 kts | 81° |
| 2026-04-28 21:38 | -45.02000 | 168.73575 | 1166 ft | 1 kts | 78° |
| 2026-04-28 21:39 | -45.01998 | 168.73587 | 1164 ft | 0 kts | 78° |
| 2026-04-28 21:39 | -45.01997 | 168.73588 | 1165 ft | 1 kts | 78° |
| 2026-04-28 21:39 | -45.01997 | 168.73589 | 1165 ft | 0 kts | 78° |
| 2026-04-28 21:39 | -45.01983 | 168.73682 | 1166 ft | 38 kts | 77° |
| 2026-04-28 21:40 | -45.01860 | 168.74465 | 1169 ft | 122 kts | 77° |
| 2026-04-28 21:40 | -45.01647 | 168.75854 | 1516 ft | 147 kts | 75° |
| 2026-04-28 21:40 | -45.01436 | 168.77209 | 2310 ft | 142 kts | 70° |
| 2026-04-28 21:40 | -45.01125 | 168.78649 | 2765 ft | 164 kts | 68° |
| 2026-04-28 21:41 | -45.00690 | 168.80181 | 3316 ft | 175 kts | 62° |
| 2026-04-28 21:41 | -45.00024 | 168.81798 | 3445 ft | 202 kts | 57° |
| 2026-04-28 21:41 | -44.99400 | 168.83608 | 3833 ft | 215 kts | 74° |
| 2026-04-28 21:41 | -44.99307 | 168.85817 | 4130 ft | 239 kts | 92° |
| 2026-04-28 21:42 | -44.99478 | 168.88278 | 4484 ft | 264 kts | 94° |
| 2026-04-28 21:42 | -44.99700 | 168.90933 | 5074 ft | 279 kts | 95° |
| 2026-04-28 21:42 | -44.99950 | 168.93688 | 5830 ft | 287 kts | 95° |
| 2026-04-28 21:42 | -45.00069 | 168.96523 | 6509 ft | 291 kts | 79° |
| 2026-04-28 21:43 | -44.99473 | 168.99226 | 7202 ft | 289 kts | 55° |
| 2026-04-28 21:43 | -44.98385 | 169.01627 | 7942 ft | 292 kts | 51° |
| 2026-04-28 21:43 | -44.97253 | 169.04028 | 8709 ft | 296 kts | 50° |
| 2026-04-28 21:43 | -44.96101 | 169.06463 | 9460 ft | 302 kts | 50° |
| 2026-04-28 21:44 | -44.94924 | 169.08952 | 10185 ft | 307 kts | 49° |
| 2026-04-28 21:44 | -44.93694 | 169.11547 | 10477 ft | 329 kts | 50° |
| 2026-04-28 21:44 | -44.92377 | 169.14317 | 10802 ft | 346 kts | 50° |
| 2026-04-28 21:44 | -44.91032 | 169.17163 | 11352 ft | 352 kts | 51° |
| 2026-04-28 21:45 | -44.89660 | 169.20074 | 11890 ft | 359 kts | 50° |
| 2026-04-28 21:45 | -44.88266 | 169.23027 | 12516 ft | 364 kts | 50° |
| 2026-04-28 21:45 | -44.86856 | 169.26010 | 13147 ft | 369 kts | 50° |
| 2026-04-28 21:45 | -44.85417 | 169.29046 | 13789 ft | 374 kts | 50° |
| 2026-04-28 21:46 | -44.83966 | 169.32108 | 14401 ft | 376 kts | 52° |
| 2026-04-28 21:46 | -44.82512 | 169.35175 | 15070 ft | 377 kts | 52° |
| 2026-04-28 21:46 | -44.81057 | 169.38242 | 15715 ft | 378 kts | 52° |
| 2026-04-28 21:46 | -44.79590 | 169.41331 | 16338 ft | 380 kts | 52° |
| 2026-04-28 21:47 | -44.78112 | 169.44435 | 16947 ft | 383 kts | 52° |
| 2026-04-28 21:47 | -44.76626 | 169.47549 | 17546 ft | 385 kts | 52° |
| 2026-04-28 21:47 | -44.75146 | 169.50648 | 18160 ft | 387 kts | 53° |
| 2026-04-28 21:47 | -44.73619 | 169.53847 | 18744 ft | 390 kts | 53° |
| 2026-04-28 21:48 | -44.72120 | 169.56984 | 19274 ft | 393 kts | 53° |
| 2026-04-28 21:48 | -44.70586 | 169.60184 | 19785 ft | 396 kts | 52° |
| 2026-04-28 21:48 | -44.69037 | 169.63406 | 20320 ft | 400 kts | 52° |
| 2026-04-28 21:48 | -44.67474 | 169.66654 | 20865 ft | 402 kts | 52° |
| 2026-04-28 21:49 | -44.65898 | 169.69927 | 21376 ft | 406 kts | 52° |
| 2026-04-28 21:49 | -44.64312 | 169.73219 | 21898 ft | 409 kts | 52° |
| 2026-04-28 21:49 | -44.62717 | 169.76537 | 22422 ft | 412 kts | 52° |
| 2026-04-28 21:49 | -44.61106 | 169.79884 | 22900 ft | 416 kts | 52° |
| 2026-04-28 21:50 | -44.59477 | 169.83265 | 23170 ft | 419 kts | 52° |
| 2026-04-28 21:50 | -44.57866 | 169.86608 | 23217 ft | 409 kts | 52° |
| 2026-04-28 21:50 | -44.56282 | 169.89891 | 23216 ft | 405 kts | 52° |
| 2026-04-28 21:50 | -44.54701 | 169.93154 | 23211 ft | 404 kts | 52° |
| 2026-04-28 21:51 | -44.53123 | 169.96399 | 23224 ft | 402 kts | 52° |
| 2026-04-28 21:51 | -44.51544 | 169.99640 | 23222 ft | 402 kts | 52° |
| 2026-04-28 21:51 | -44.49972 | 170.02865 | 23226 ft | 402 kts | 52° |
| 2026-04-28 21:51 | -44.48395 | 170.06099 | 23226 ft | 402 kts | 52° |
| 2026-04-28 21:52 | -44.46821 | 170.09326 | 23224 ft | 402 kts | 52° |
| 2026-04-28 21:52 | -44.45244 | 170.12557 | 23228 ft | 402 kts | 52° |
| 2026-04-28 21:52 | -44.43669 | 170.15778 | 23222 ft | 401 kts | 51° |
| 2026-04-28 21:52 | -44.42095 | 170.18993 | 23222 ft | 401 kts | 51° |
| 2026-04-28 21:53 | -44.40517 | 170.22218 | 23221 ft | 401 kts | 52° |
| 2026-04-28 21:53 | -44.38940 | 170.25437 | 23223 ft | 402 kts | 52° |
| 2026-04-28 21:53 | -44.37357 | 170.28666 | 23226 ft | 403 kts | 51° |
| 2026-04-28 21:53 | -44.35776 | 170.31886 | 23228 ft | 403 kts | 51° |
| 2026-04-28 21:54 | -44.34208 | 170.35076 | 23229 ft | 403 kts | 51° |
| 2026-04-28 21:54 | -44.32595 | 170.38351 | 23229 ft | 403 kts | 51° |
| 2026-04-28 21:54 | -44.31026 | 170.41531 | 23232 ft | 403 kts | 51° |
| 2026-04-28 21:54 | -44.29433 | 170.44758 | 23233 ft | 404 kts | 51° |
| 2026-04-28 21:55 | -44.27840 | 170.47981 | 23226 ft | 403 kts | 51° |
| 2026-04-28 21:55 | -44.26245 | 170.51200 | 23227 ft | 404 kts | 51° |
| 2026-04-28 21:55 | -44.24651 | 170.54417 | 23233 ft | 403 kts | 51° |
| 2026-04-28 21:55 | -44.23057 | 170.57630 | 23232 ft | 403 kts | 51° |
| 2026-04-28 21:56 | -44.21460 | 170.60849 | 23227 ft | 403 kts | 52° |
| 2026-04-28 21:56 | -44.19864 | 170.64056 | 23221 ft | 403 kts | 52° |
| 2026-04-28 21:56 | -44.18269 | 170.67267 | 23222 ft | 403 kts | 52° |
| 2026-04-28 21:56 | -44.16677 | 170.70479 | 23221 ft | 403 kts | 52° |
| 2026-04-28 21:57 | -44.15084 | 170.73684 | 23227 ft | 402 kts | 52° |
| 2026-04-28 21:57 | -44.13489 | 170.76884 | 23215 ft | 402 kts | 52° |
| 2026-04-28 21:57 | -44.11893 | 170.80075 | 23217 ft | 402 kts | 51° |
| 2026-04-28 21:57 | -44.10292 | 170.83276 | 23213 ft | 402 kts | 51° |
| 2026-04-28 21:58 | -44.08695 | 170.86461 | 23231 ft | 402 kts | 51° |
| 2026-04-28 21:58 | -44.07100 | 170.89641 | 23075 ft | 398 kts | 51° |
| 2026-04-28 21:58 | -44.05532 | 170.92764 | 22778 ft | 390 kts | 52° |
| 2026-04-28 21:58 | -44.03996 | 170.95827 | 22512 ft | 382 kts | 52° |
| 2026-04-28 21:59 | -44.02496 | 170.98824 | 22234 ft | 375 kts | 52° |
| 2026-04-28 21:59 | -44.01009 | 171.01786 | 21799 ft | 373 kts | 52° |
| 2026-04-28 21:59 | -43.99526 | 171.04728 | 21363 ft | 371 kts | 51° |
| 2026-04-28 22:00 | -43.96581 | 171.10557 | 20493 ft | 367 kts | 51° |
| 2026-04-28 22:00 | -43.95117 | 171.13460 | 20059 ft | 367 kts | 51° |
| 2026-04-28 22:00 | -43.93654 | 171.16354 | 19624 ft | 366 kts | 51° |
| 2026-04-28 22:00 | -43.92190 | 171.19239 | 19187 ft | 366 kts | 51° |
| 2026-04-28 22:01 | -43.90724 | 171.22119 | 18742 ft | 365 kts | 51° |
| 2026-04-28 22:01 | -43.89259 | 171.25002 | 18277 ft | 365 kts | 51° |
| 2026-04-28 22:01 | -43.87803 | 171.27872 | 17821 ft | 363 kts | 51° |
| 2026-04-28 22:01 | -43.86354 | 171.30729 | 17388 ft | 361 kts | 52° |
| 2026-04-28 22:02 | -43.84918 | 171.33561 | 16952 ft | 358 kts | 52° |
| 2026-04-28 22:02 | -43.83486 | 171.36372 | 16524 ft | 356 kts | 51° |
| 2026-04-28 22:02 | -43.82081 | 171.39126 | 16111 ft | 354 kts | 52° |
| 2026-04-28 22:02 | -43.80647 | 171.41941 | 15678 ft | 352 kts | 52° |
| 2026-04-28 22:03 | -43.79236 | 171.44702 | 15259 ft | 350 kts | 51° |
| 2026-04-28 22:03 | -43.77833 | 171.47450 | 14840 ft | 349 kts | 52° |
| 2026-04-28 22:03 | -43.76458 | 171.50141 | 14433 ft | 347 kts | 51° |
| 2026-04-28 22:03 | -43.75061 | 171.52859 | 14017 ft | 346 kts | 51° |
| 2026-04-28 22:04 | -43.73668 | 171.55566 | 13567 ft | 344 kts | 52° |
| 2026-04-28 22:04 | -43.72279 | 171.58264 | 13071 ft | 344 kts | 52° |
| 2026-04-28 22:04 | -43.70963 | 171.60982 | 12703 ft | 337 kts | 59° |
| 2026-04-28 22:04 | -43.70115 | 171.63973 | 12131 ft | 331 kts | 76° |
| 2026-04-28 22:05 | -43.69853 | 171.67059 | 11761 ft | 318 kts | 90° |
| 2026-04-28 22:05 | -43.69974 | 171.70048 | 11388 ft | 306 kts | 93° |
| 2026-04-28 22:05 | -43.70102 | 171.72935 | 11042 ft | 295 kts | 93° |
| 2026-04-28 22:05 | -43.70221 | 171.75718 | 10701 ft | 286 kts | 93° |
| 2026-04-28 22:06 | -43.70336 | 171.78473 | 10364 ft | 288 kts | 93° |
| 2026-04-28 22:06 | -43.70413 | 171.80299 | 10135 ft | 288 kts | 94° |
| 2026-04-28 22:06 | -43.70530 | 171.83076 | 9769 ft | 290 kts | 94° |
| 2026-04-28 22:06 | -43.70646 | 171.85850 | 9418 ft | 289 kts | 94° |
| 2026-04-28 22:07 | -43.70760 | 171.88624 | 9077 ft | 289 kts | 93° |
| 2026-04-28 22:07 | -43.70874 | 171.91394 | 8722 ft | 288 kts | 93° |
| 2026-04-28 22:07 | -43.70986 | 171.94157 | 8376 ft | 288 kts | 93° |
| 2026-04-28 22:07 | -43.71098 | 171.96925 | 8026 ft | 288 kts | 93° |
| 2026-04-28 22:08 | -43.71210 | 171.99692 | 7680 ft | 289 kts | 93° |
| 2026-04-28 22:08 | -43.71145 | 172.02459 | 7328 ft | 288 kts | 81° |
| 2026-04-28 22:08 | -43.70683 | 172.05145 | 6982 ft | 288 kts | 75° |
| 2026-04-28 22:08 | -43.70171 | 172.07809 | 6626 ft | 283 kts | 76° |
| 2026-04-28 22:09 | -43.69675 | 172.10403 | 6279 ft | 279 kts | 76° |
| 2026-04-28 22:09 | -43.69180 | 172.13001 | 5943 ft | 279 kts | 75° |
| 2026-04-28 22:09 | -43.68689 | 172.15593 | 5596 ft | 279 kts | 75° |
| 2026-04-28 22:09 | -43.68194 | 172.18183 | 5249 ft | 279 kts | 75° |
| 2026-04-28 22:10 | -43.67696 | 172.20773 | 4903 ft | 279 kts | 75° |
| 2026-04-28 22:10 | -43.67199 | 172.23359 | 4550 ft | 279 kts | 75° |
| 2026-04-28 22:10 | -43.66702 | 172.25939 | 4356 ft | 273 kts | 75° |
| 2026-04-28 22:10 | -43.66226 | 172.28416 | 4262 ft | 259 kts | 75° |
| 2026-04-28 22:11 | -43.65779 | 172.30738 | 4166 ft | 241 kts | 75° |
| 2026-04-28 22:11 | -43.65347 | 172.32888 | 4069 ft | 226 kts | 70° |
| 2026-04-28 22:11 | -43.64623 | 172.34761 | 3910 ft | 219 kts | 50° |
| 2026-04-28 22:11 | -43.63542 | 172.36212 | 3678 ft | 215 kts | 38° |
| 2026-04-28 22:12 | -43.62422 | 172.37514 | 3401 ft | 211 kts | 39° |
| 2026-04-28 22:12 | -43.61293 | 172.38830 | 3110 ft | 208 kts | 38° |
| 2026-04-28 22:12 | -43.60214 | 172.40086 | 2821 ft | 202 kts | 38° |
| 2026-04-28 22:12 | -43.59148 | 172.41324 | 2562 ft | 194 kts | 38° |
| 2026-04-28 22:13 | -43.58148 | 172.42486 | 2329 ft | 188 kts | 38° |
| 2026-04-28 22:13 | -43.57148 | 172.43648 | 2036 ft | 185 kts | 38° |
| 2026-04-28 22:13 | -43.56208 | 172.44740 | 1830 ft | 168 kts | 37° |
| 2026-04-28 22:13 | -43.55350 | 172.45737 | 1595 ft | 156 kts | 37° |
| 2026-04-28 22:14 | -43.54537 | 172.46680 | 1389 ft | 151 kts | 38° |
| 2026-04-28 22:14 | -43.53739 | 172.47604 | 1194 ft | 149 kts | 37° |
| 2026-04-28 22:14 | -43.52954 | 172.48521 | 970 ft | 147 kts | 38° |
| 2026-04-28 22:14 | -43.52174 | 172.49431 | 755 ft | 146 kts | 38° |
| 2026-04-28 22:15 | -43.51407 | 172.50321 | 584 ft | 143 kts | 39° |
| 2026-04-28 22:15 | -43.50641 | 172.51195 | 387 ft | 143 kts | 40° |
| 2026-04-28 22:15 | -43.49887 | 172.52068 | 201 ft | 141 kts | 41° |
| 2026-04-28 22:15 | -43.49170 | 172.52900 | 118 ft | 118 kts | 39° |
| 2026-04-28 22:16 | -43.48771 | 172.53356 | 114 ft | 38 kts | 40° |
| 2026-04-28 22:16 | -43.48564 | 172.53598 | 109 ft | 37 kts | 41° |
| 2026-04-28 22:16 | -43.48477 | 172.53836 | 107 ft | 30 kts | 70° |
| 2026-04-28 22:16 | -43.48517 | 172.53978 | 108 ft | 18 kts | 197° |
| 2026-04-28 22:17 | -43.48626 | 172.53855 | 108 ft | 23 kts | 219° |
| 2026-04-28 22:17 | -43.48738 | 172.53798 | 108 ft | 13 kts | 139° |
| 2026-04-28 22:17 | -43.48758 | 172.53831 | 108 ft | 0 kts | 130° |